Terminal Aerodrome Forecast
Issued by NWS

Home | Current Version | Previous Version | Text Only | Print | Product List | Glossary On
Versions: 1 2 3 4 5 6 7 8 9 10 11 12 13 14 15 16 17 18 19 20 21 22 23 24 25 26 27
000
FTUS45 KGJT 052351
TAFRIL
TAF
KRIL 052351Z 0600/0624 26015KT P6SM VCSH FEW035 BKN060 BKN100
     FM060100 23014G20KT P6SM VCSH SCT035 BKN060
      TEMPO 0601/0604 -SHRA BKN035 OVC050
     FM060400 25005KT P6SM -RA OVC030
     FM061300 29005KT 5SM -RA BR BKN025
     FM061900 26008KT P6SM -SHRA SCT030 BKN050=

USA.gov is the U.S. government's official web portal to all federal, state and local government web resources and services.